Time;durP1;ratioP1;P1;durP2;ratioP2;P2;SDS_P1;SDS_P2;PMS_P1;PMS_P2;Temp;Humidity;BMP_temperature;BMP_pressure;BME280_temperature;BME280_humidity;BME280_pressure;Samples;Min_cycle;Max_cycle;Signal;HPM_P1;HPM_P2
2022/10/01 00:00:52;;;;;;;8.60;7.40;;;13.50;97.00;;;;;;5001735;28;20219;-58
2022/10/01 00:03:19;;;;;;;10.43;8.63;;;13.50;97.10;;;;;;4959820;28;20201;-58
2022/10/01 00:05:45;;;;;;;9.63;7.77;;;13.50;97.10;;;;;;5016392;28;20181;-59
2022/10/01 00:08:13;;;;;;;8.93;7.77;;;13.50;97.10;;;;;;4988592;28;20185;-59
2022/10/01 00:10:42;;;;;;;8.23;7.43;;;13.50;97.00;;;;;;4993264;28;20279;-59
2022/10/01 00:13:09;;;;;;;10.50;8.73;;;13.50;97.00;;;;;;4989916;28;20188;-59
2022/10/01 00:15:39;;;;;;;13.33;10.93;;;13.50;97.00;;;;;;4983350;28;20211;-59
2022/10/01 00:18:06;;;;;;;12.27;10.50;;;13.50;97.00;;;;;;4971541;28;20188;-59
2022/10/01 00:20:31;;;;;;;11.00;9.90;;;13.40;97.00;;;;;;4963166;28;20248;-59
2022/10/01 00:22:57;;;;;;;10.57;9.20;;;13.50;97.00;;;;;;4981413;28;20194;-59
2022/10/01 00:25:24;;;;;;;10.90;8.63;;;13.50;97.10;;;;;;4983631;28;20195;-58
2022/10/01 00:27:50;;;;;;;13.07;8.77;;;13.50;97.10;;;;;;5012401;28;20191;-59
2022/10/01 00:30:16;;;;;;;10.87;9.27;;;13.50;97.00;;;;;;4978761;28;20201;-59
2022/10/01 00:32:42;;;;;;;10.10;8.77;;;13.50;97.00;;;;;;4991935;28;20232;-59
2022/10/01 00:35:08;;;;;;;12.33;8.87;;;13.50;97.00;;;;;;5005502;28;20236;-59
2022/10/01 00:37:37;;;;;;;10.13;9.00;;;13.50;97.10;;;;;;5034957;28;20312;-59
2022/10/01 00:40:05;;;;;;;11.97;8.57;;;13.50;97.00;;;;;;4974625;28;20177;-59
2022/10/01 00:42:31;;;;;;;12.07;8.87;;;13.50;97.00;;;;;;4980709;28;20176;-59
2022/10/01 00:45:01;;;;;;;13.37;8.93;;;13.50;97.00;;;;;;4971211;28;20190;-58
2022/10/01 00:47:33;;;;;;;11.97;9.47;;;13.50;97.00;;;;;;4989568;28;20193;-58
2022/10/01 00:50:12;;;;;;;15.10;9.07;;;13.50;97.00;;;;;;4975245;28;20189;-58
2022/10/01 00:52:40;;;;;;;13.67;9.90;;;13.40;97.00;;;;;;5016024;28;20216;-59
2022/10/01 00:55:12;;;;;;;14.17;9.83;;;13.40;97.00;;;;;;4979954;28;20196;-59
2022/10/01 00:57:39;;;;;;;11.53;9.17;;;13.40;97.00;;;;;;4984259;28;20336;-59
2022/10/01 01:00:08;;;;;;;16.30;9.60;;;13.50;97.00;;;;;;5000409;28;20180;-59
2022/10/01 01:02:34;;;;;;;14.80;9.17;;;13.40;97.00;;;;;;4989035;28;20196;-59
2022/10/01 01:05:00;;;;;;;16.67;10.00;;;13.40;97.00;;;;;;4979008;28;20185;-59
2022/10/01 01:07:27;;;;;;;18.37;10.77;;;13.40;97.00;;;;;;4975350;28;20265;-59
2022/10/01 01:09:54;;;;;;;18.87;11.27;;;13.50;97.10;;;;;;4997021;28;20191;-59
2022/10/01 01:12:29;;;;;;;16.43;11.17;;;13.50;97.10;;;;;;5015438;28;20263;-59
2022/10/01 01:15:15;;;;;;;18.87;11.67;;;13.50;97.10;;;;;;4977627;28;20200;-59
2022/10/01 01:18:10;;;;;;;16.03;10.30;;;13.50;97.10;;;;;;4991143;28;20211;-59
2022/10/01 01:21:03;;;;;;;16.03;11.17;;;13.50;97.10;;;;;;4993746;28;20193;-59
2022/10/01 01:23:54;;;;;;;20.07;12.40;;;13.50;97.00;;;;;;5025321;28;20176;-58
2022/10/01 01:26:23;;;;;;;22.97;11.93;;;13.50;97.10;;;;;;5011885;28;20188;-58
2022/10/01 01:28:54;;;;;;;16.80;11.07;;;13.50;97.00;;;;;;5008440;28;20197;-59
2022/10/01 01:31:30;;;;;;;16.90;11.10;;;13.50;97.10;;;;;;4981329;28;20637;-59
2022/10/01 01:33:57;;;;;;;19.73;11.37;;;13.50;97.10;;;;;;4983862;28;20184;-59
2022/10/01 01:36:32;;;;;;;18.30;11.37;;;13.50;97.00;;;;;;4975569;28;20229;-58
2022/10/01 01:39:02;;;;;;;22.83;11.13;;;13.50;97.10;;;;;;4974469;28;20194;-59
2022/10/01 01:41:34;;;;;;;18.07;11.60;;;13.40;97.00;;;;;;4985858;28;20197;-59
2022/10/01 01:44:02;;;;;;;15.20;11.63;;;13.50;97.00;;;;;;4988407;28;20244;-59
2022/10/01 01:46:34;;;;;;;18.83;11.67;;;13.50;97.10;;;;;;4985592;28;20192;-59
2022/10/01 01:49:03;;;;;;;17.47;11.97;;;13.50;97.10;;;;;;4983142;28;20189;-59
2022/10/01 01:51:47;;;;;;;15.77;11.20;;;13.50;97.10;;;;;;5021934;28;20209;-59
2022/10/01 01:54:12;;;;;;;14.30;10.83;;;13.50;97.10;;;;;;5012718;28;20184;-59
2022/10/01 01:56:38;;;;;;;17.27;11.90;;;13.40;97.10;;;;;;4997059;28;20215;-59
2022/10/01 01:59:04;;;;;;;14.37;10.43;;;13.40;97.10;;;;;;4974569;28;20212;-59
2022/10/01 02:01:40;;;;;;;13.33;10.13;;;13.40;97.10;;;;;;5018997;28;20181;-59
2022/10/01 02:04:30;;;;;;;12.37;9.87;;;13.30;97.00;;;;;;4978158;28;20191;-59
2022/10/01 02:07:22;;;;;;;13.33;10.07;;;13.40;97.00;;;;;;5005019;28;20205;-59
2022/10/01 02:10:07;;;;;;;11.20;10.00;;;13.40;97.10;;;;;;5005507;28;20185;-59
2022/10/01 02:12:53;;;;;;;13.83;9.67;;;13.40;97.10;;;;;;5018045;28;20214;-59
2022/10/01 02:15:35;;;;;;;13.17;10.40;;;13.40;97.00;;;;;;4980888;28;20192;-59
2022/10/01 02:18:10;;;;;;;12.40;9.43;;;13.40;97.10;;;;;;5019361;28;20212;-59
2022/10/01 02:20:49;;;;;;;13.17;9.23;;;13.30;97.00;;;;;;5022049;28;20184;-59
2022/10/01 02:23:18;;;;;;;9.20;8.20;;;13.30;96.90;;;;;;4990223;28;20193;-59
2022/10/01 02:25:48;;;;;;;12.03;8.37;;;13.30;97.00;;;;;;4986478;28;20264;-59
2022/10/01 02:28:22;;;;;;;13.40;8.20;;;13.30;97.00;;;;;;4980764;28;20244;-59
2022/10/01 02:30:50;;;;;;;11.40;8.90;;;13.30;97.00;;;;;;5019837;28;20181;-59
2022/10/01 02:33:20;;;;;;;13.53;8.47;;;13.30;97.00;;;;;;4982731;28;20289;-60
2022/10/01 02:35:47;;;;;;;9.40;7.73;;;13.30;97.00;;;;;;4984586;28;20327;-60
2022/10/01 02:38:15;;;;;;;10.60;8.27;;;13.30;96.90;;;;;;4984188;28;20192;-60
2022/10/01 02:40:43;;;;;;;9.97;8.13;;;13.30;96.90;;;;;;4974878;28;20189;-60
2022/10/01 02:43:20;;;;;;;9.10;8.17;;;13.20;96.90;;;;;;4995371;28;20209;-59
2022/10/01 02:45:54;;;;;;;10.73;7.53;;;13.20;96.90;;;;;;4992423;28;20188;-59
2022/10/01 02:48:20;;;;;;;12.00;8.20;;;13.20;96.90;;;;;;4991165;28;20288;-59
2022/10/01 02:51:14;;;;;;;11.17;8.43;;;13.20;96.90;;;;;;4993669;28;20283;-59
2022/10/01 02:53:43;;;;;;;8.90;7.83;;;13.20;96.90;;;;;;4993122;28;20180;-59
2022/10/01 02:56:10;;;;;;;12.30;7.77;;;13.10;96.90;;;;;;4991725;28;20685;-59
2022/10/01 02:58:36;;;;;;;10.93;8.30;;;13.20;96.90;;;;;;5022760;28;20199;-59
2022/10/01 03:01:02;;;;;;;11.50;7.60;;;13.10;96.90;;;;;;5009627;28;20204;-59
2022/10/01 03:03:29;;;;;;;12.47;8.07;;;13.10;96.80;;;;;;4975137;28;20232;-59
2022/10/01 03:05:55;;;;;;;9.87;8.00;;;13.10;96.80;;;;;;5019481;28;20184;-59
2022/10/01 03:08:22;;;;;;;11.30;8.30;;;13.00;96.80;;;;;;4976997;28;20195;-59
2022/10/01 03:10:47;;;;;;;11.23;7.90;;;13.00;96.80;;;;;;4996145;28;20188;-59
2022/10/01 03:13:13;;;;;;;10.63;8.10;;;13.00;96.90;;;;;;4975793;28;20251;-59
2022/10/01 03:15:39;;;;;;;9.30;8.20;;;13.00;96.90;;;;;;4994395;28;20185;-59
2022/10/01 03:18:04;;;;;;;12.03;8.37;;;13.00;96.90;;;;;;4994002;28;20295;-59
2022/10/01 03:20:30;;;;;;;8.13;7.30;;;12.90;96.90;;;;;;4978316;28;20189;-59
2022/10/01 03:22:56;;;;;;;12.93;8.37;;;12.90;96.90;;;;;;4983321;28;20196;-59
2022/10/01 03:25:21;;;;;;;11.70;8.43;;;13.00;96.90;;;;;;5029479;28;20186;-59
2022/10/01 03:27:47;;;;;;;9.20;7.03;;;13.00;97.00;;;;;;5006517;28;20185;-59
2022/10/01 03:30:13;;;;;;;11.10;8.70;;;13.00;96.90;;;;;;5008634;28;20213;-59
2022/10/01 03:32:39;;;;;;;8.30;7.40;;;12.90;97.00;;;;;;4973542;28;20229;-59
2022/10/01 03:35:05;;;;;;;11.23;7.93;;;12.90;96.90;;;;;;4981562;28;20244;-59
2022/10/01 03:37:31;;;;;;;10.70;8.07;;;12.90;97.00;;;;;;4976613;28;20221;-59
2022/10/01 03:39:57;;;;;;;11.67;7.77;;;13.00;97.00;;;;;;4986484;28;20258;-59
2022/10/01 03:42:22;;;;;;;9.40;7.23;;;13.00;97.00;;;;;;4961854;28;20190;-59
2022/10/01 03:44:48;;;;;;;11.00;7.70;;;13.00;97.00;;;;;;4978203;28;20190;-59
2022/10/01 03:47:14;;;;;;;8.23;7.33;;;13.00;97.00;;;;;;5009257;28;20257;-59
2022/10/01 03:49:39;;;;;;;8.93;7.93;;;13.00;97.00;;;;;;5020083;28;20181;-59
2022/10/01 03:52:05;;;;;;;12.00;7.07;;;13.00;97.00;;;;;;4969378;28;20197;-59
2022/10/01 03:54:31;;;;;;;17.07;12.47;;;13.00;97.00;;;;;;4991406;28;20208;-59
2022/10/01 03:56:57;;;;;;;17.53;13.67;;;13.10;97.00;;;;;;4977017;28;20220;-59
2022/10/01 03:59:25;;;;;;;22.17;12.93;;;13.00;97.00;;;;;;4978332;28;20193;-59
2022/10/01 04:01:50;;;;;;;15.37;12.00;;;13.00;97.00;;;;;;4992655;28;20239;-59
2022/10/01 04:04:16;;;;;;;12.70;10.70;;;13.10;97.00;;;;;;4969893;28;20189;-59
2022/10/01 04:06:42;;;;;;;11.87;9.73;;;13.10;97.00;;;;;;4976505;28;20192;-59
2022/10/01 04:09:08;;;;;;;11.83;9.23;;;13.10;97.00;;;;;;4999846;28;20197;-59
2022/10/01 04:11:35;;;;;;;17.10;10.87;;;13.10;97.00;;;;;;4977327;28;20192;-59
2022/10/01 04:14:01;;;;;;;12.50;8.83;;;13.10;97.00;;;;;;4990845;28;20192;-59
2022/10/01 04:16:27;;;;;;;10.03;7.87;;;13.10;97.00;;;;;;5022744;28;20204;-59
2022/10/01 04:18:53;;;;;;;9.03;8.10;;;13.10;97.00;;;;;;4990741;28;20181;-59
2022/10/01 04:21:18;;;;;;;10.03;8.33;;;13.10;97.00;;;;;;4972225;28;20185;-59
2022/10/01 04:23:44;;;;;;;11.70;8.93;;;13.10;97.00;;;;;;4959888;28;20197;-59
2022/10/01 04:26:10;;;;;;;15.50;9.17;;;13.10;97.00;;;;;;5007140;28;20203;-59
2022/10/01 04:28:35;;;;;;;10.10;8.23;;;13.10;97.00;;;;;;4998057;28;20197;-59
2022/10/01 04:33:45;;;;;;;9.40;7.57;;;13.10;97.00;;;;;;5025277;28;20272;-59
2022/10/01 04:36:11;;;;;;;10.00;7.97;;;13.10;97.00;;;;;;4974850;28;20241;-59
2022/10/01 04:38:37;;;;;;;8.60;7.33;;;13.10;96.90;;;;;;4975363;28;20185;-59
2022/10/01 04:41:03;;;;;;;8.87;6.70;;;13.10;97.00;;;;;;4991901;28;20264;-59
2022/10/01 04:43:28;;;;;;;8.47;7.13;;;13.10;97.00;;;;;;4960855;28;20186;-59
2022/10/01 04:45:54;;;;;;;8.80;6.83;;;13.10;97.00;;;;;;5009216;28;20247;-59
2022/10/01 04:48:20;;;;;;;9.30;7.17;;;13.10;97.00;;;;;;5014928;28;20192;-59
2022/10/01 04:50:46;;;;;;;7.87;6.63;;;13.10;97.00;;;;;;4974240;28;20196;-59
2022/10/01 04:53:12;;;;;;;10.13;7.60;;;13.10;97.00;;;;;;4990004;28;20195;-59
2022/10/01 04:55:37;;;;;;;12.60;6.97;;;13.10;97.00;;;;;;5018796;28;20178;-59
2022/10/01 04:58:03;;;;;;;9.67;6.87;;;13.00;96.90;;;;;;4978034;28;20217;-59
2022/10/01 05:00:29;;;;;;;10.07;7.90;;;13.00;96.90;;;;;;4973343;28;20491;-59
2022/10/01 05:02:55;;;;;;;9.97;8.20;;;13.00;96.90;;;;;;4991877;28;20192;-59
2022/10/01 05:05:23;;;;;;;14.50;8.87;;;13.00;96.90;;;;;;4974345;28;20195;-59
2022/10/01 05:07:49;;;;;;;15.87;9.60;;;13.00;96.90;;;;;;5009119;28;20181;-59
2022/10/01 05:10:21;;;;;;;13.00;9.73;;;13.00;96.90;;;;;;4983673;28;20188;-59
2022/10/01 05:12:48;;;;;;;14.90;9.07;;;13.00;96.90;;;;;;4991426;28;20181;-59
2022/10/01 05:15:15;;;;;;;16.20;10.60;;;13.00;96.90;;;;;;4980390;28;20196;-64
2022/10/01 05:17:41;;;;;;;18.73;9.70;;;13.00;96.90;;;;;;4997517;28;20201;-64
2022/10/01 05:20:10;;;;;;;14.10;10.13;;;13.00;96.90;;;;;;5011947;28;20204;-64
2022/10/01 05:22:36;;;;;;;12.87;8.93;;;13.00;96.90;;;;;;4990079;28;20180;-64
2022/10/01 05:25:02;;;;;;;12.33;9.00;;;13.00;96.80;;;;;;4977778;28;20276;-64
2022/10/01 05:27:30;;;;;;;8.57;7.30;;;13.00;96.90;;;;;;4984523;28;20283;-64
2022/10/01 05:29:56;;;;;;;8.97;7.60;;;12.90;96.80;;;;;;4981098;28;20204;-64
2022/10/01 05:32:21;;;;;;;8.37;7.13;;;13.00;96.80;;;;;;4969741;28;20185;-64
2022/10/01 05:34:47;;;;;;;10.10;8.00;;;12.90;96.80;;;;;;5008182;28;20327;-64
2022/10/01 05:37:13;;;;;;;10.67;7.57;;;12.90;96.90;;;;;;4967524;28;20204;-64
2022/10/01 05:39:39;;;;;;;10.33;7.57;;;12.90;96.80;;;;;;4969285;28;20199;-64
2022/10/01 05:42:04;;;;;;;10.63;7.70;;;13.00;96.80;;;;;;4994163;28;20189;-64
2022/10/01 05:44:36;;;;;;;12.60;7.87;;;13.00;96.90;;;;;;4983418;28;20215;-64
2022/10/01 05:47:05;;;;;;;13.87;8.43;;;13.00;96.90;;;;;;4987912;28;20193;-64
2022/10/01 05:49:31;;;;;;;12.17;8.20;;;13.00;96.90;;;;;;4991930;28;20200;-64
2022/10/01 05:51:59;;;;;;;10.27;7.63;;;13.00;96.80;;;;;;4976839;28;20235;-64
2022/10/01 05:54:28;;;;;;;15.83;12.27;;;13.00;96.70;;;;;;4979623;28;20188;-64
2022/10/01 05:56:54;;;;;;;14.13;11.73;;;13.00;96.80;;;;;;4990070;28;20215;-64
2022/10/01 05:59:20;;;;;;;15.23;11.43;;;13.00;96.90;;;;;;4981132;28;20200;-63
2022/10/01 06:01:45;;;;;;;12.97;11.20;;;13.00;96.90;;;;;;4975257;28;20275;-63
2022/10/01 06:04:11;;;;;;;17.03;11.67;;;13.10;96.90;;;;;;4999822;28;20186;-64
2022/10/01 06:06:37;;;;;;;16.13;11.80;;;13.10;96.90;;;;;;4981875;28;20192;-64
2022/10/01 06:09:02;;;;;;;13.97;11.00;;;13.10;96.90;;;;;;5022057;28;20234;-64
2022/10/01 06:11:28;;;;;;;13.80;10.63;;;13.10;96.90;;;;;;5024446;28;20198;-64
2022/10/01 06:13:54;;;;;;;11.43;9.30;;;13.10;96.90;;;;;;4978514;28;20236;-64
2022/10/01 06:16:20;;;;;;;10.10;8.87;;;13.10;96.90;;;;;;5007091;28;20206;-64
2022/10/01 06:18:47;;;;;;;10.57;8.60;;;13.20;96.90;;;;;;5017448;28;20243;-64
2022/10/01 06:21:13;;;;;;;9.90;8.37;;;13.20;96.80;;;;;;4972508;28;20196;-64
2022/10/01 06:23:39;;;;;;;8.80;7.23;;;13.10;96.80;;;;;;4967958;28;20185;-63
2022/10/01 06:26:05;;;;;;;9.57;8.23;;;13.10;96.80;;;;;;4976245;28;20193;-64
2022/10/01 06:28:31;;;;;;;9.43;7.40;;;13.20;96.80;;;;;;4962176;28;20193;-64
2022/10/01 06:31:00;;;;;;;9.60;7.80;;;13.20;96.80;;;;;;4990570;28;20184;-63
2022/10/01 06:33:26;;;;;;;9.77;8.33;;;13.30;96.80;;;;;;4996288;28;20219;-63
2022/10/01 06:35:52;;;;;;;11.57;9.03;;;13.30;96.80;;;;;;4995500;28;20268;-63
2022/10/01 06:38:20;;;;;;;10.97;8.60;;;13.30;96.70;;;;;;4981109;28;20216;-64
2022/10/01 06:40:57;;;;;;;18.37;12.90;;;13.30;96.70;;;;;;4978326;28;20182;-64
2022/10/01 06:43:24;;;;;;;20.17;13.37;;;13.30;96.70;;;;;;4985473;28;20275;-64
2022/10/01 06:45:50;;;;;;;16.70;12.27;;;13.30;96.70;;;;;;4990761;28;20185;-64
2022/10/01 06:48:17;;;;;;;12.37;9.27;;;13.30;96.70;;;;;;4984157;28;20185;-64
2022/10/01 06:50:44;;;;;;;13.97;9.90;;;13.30;96.80;;;;;;4979294;28;20288;-64
2022/10/01 06:53:10;;;;;;;14.77;10.23;;;13.30;96.70;;;;;;5009011;28;20193;-64
2022/10/01 06:55:37;;;;;;;12.10;10.23;;;13.30;96.70;;;;;;4987346;28;20218;-64
2022/10/01 06:58:10;;;;;;;13.77;10.43;;;13.40;96.70;;;;;;5006470;28;20266;-64
2022/10/01 07:00:37;;;;;;;12.50;9.20;;;13.40;96.70;;;;;;5028605;28;20188;-64
2022/10/01 07:03:10;;;;;;;14.33;10.43;;;13.40;96.70;;;;;;4985642;28;20520;-64
2022/10/01 07:05:37;;;;;;;14.23;10.20;;;13.40;96.70;;;;;;4989698;28;20196;-64
2022/10/01 07:08:04;;;;;;;14.47;10.13;;;13.40;96.60;;;;;;4995173;28;20188;-64
2022/10/01 07:10:30;;;;;;;15.70;12.07;;;13.40;96.60;;;;;;4982796;28;20189;-64
2022/10/01 07:13:06;;;;;;;15.20;11.03;;;13.50;96.60;;;;;;5038149;28;20200;-64
2022/10/01 07:15:32;;;;;;;11.77;9.47;;;13.30;96.30;;;;;;4993252;28;20184;-64
2022/10/01 07:17:57;;;;;;;11.93;9.77;;;13.50;96.40;;;;;;4973813;28;20220;-64
2022/10/01 07:20:23;;;;;;;11.90;9.37;;;13.50;96.40;;;;;;4976022;28;20185;-64
2022/10/01 07:22:56;;;;;;;14.27;9.70;;;13.40;96.10;;;;;;4979927;28;20234;-64
2022/10/01 07:25:21;;;;;;;11.57;9.40;;;13.40;96.00;;;;;;4983134;28;20200;-64
2022/10/01 07:27:47;;;;;;;11.30;9.47;;;13.40;96.10;;;;;;4995681;28;20182;-65
2022/10/01 07:30:13;;;;;;;10.43;9.10;;;13.40;95.80;;;;;;4986943;28;20255;-65
2022/10/01 07:32:42;;;;;;;12.30;9.20;;;13.30;95.60;;;;;;4968407;28;20191;-65
2022/10/01 07:35:07;;;;;;;15.00;9.87;;;13.30;95.80;;;;;;4976744;28;20235;-65
2022/10/01 07:37:33;;;;;;;12.80;9.10;;;13.40;96.00;;;;;;4971254;28;20216;-65
2022/10/01 07:39:59;;;;;;;10.27;7.87;;;13.50;96.20;;;;;;5003498;28;20199;-65
2022/10/01 07:42:26;;;;;;;10.17;8.77;;;13.60;96.20;;;;;;5021164;28;20335;-65
2022/10/01 07:44:52;;;;;;;5.93;5.10;;;13.60;96.20;;;;;;4977432;28;20196;-65
2022/10/01 07:47:17;;;;;;;5.97;4.83;;;13.70;96.10;;;;;;4992144;28;20201;-65
2022/10/01 07:49:43;;;;;;;4.30;3.90;;;13.70;96.20;;;;;;5020702;28;20199;-65
2022/10/01 07:52:09;;;;;;;3.53;3.23;;;13.70;95.70;;;;;;4971426;28;20197;-65
2022/10/01 07:54:34;;;;;;;4.83;3.50;;;13.80;95.80;;;;;;5010809;28;20193;-65
2022/10/01 07:57:00;;;;;;;3.73;3.37;;;13.80;95.90;;;;;;4972597;28;20252;-65
2022/10/01 07:59:26;;;;;;;3.67;3.30;;;13.90;95.80;;;;;;5013019;28;20186;-65
2022/10/01 08:01:52;;;;;;;3.70;3.40;;;14.00;95.70;;;;;;4993606;28;20207;-62
2022/10/01 08:07:07;;;;;;;3.10;2.80;;;14.20;96.00;;;;;;4989681;28;20201;-64
2022/10/01 08:09:33;;;;;;;12.10;4.43;;;14.30;96.10;;;;;;4977529;28;20181;-64
2022/10/01 08:11:59;;;;;;;4.47;4.07;;;14.30;96.20;;;;;;4982878;28;20188;-64
2022/10/01 08:14:25;;;;;;;3.33;3.07;;;14.30;96.00;;;;;;4977275;28;20193;-64
2022/10/01 08:16:54;;;;;;;4.00;3.70;;;14.30;96.00;;;;;;4995671;28;20228;-64
2022/10/01 08:19:20;;;;;;;6.57;3.60;;;14.40;96.00;;;;;;5006850;28;20193;-64
2022/10/01 08:21:45;;;;;;;5.60;4.10;;;14.50;96.10;;;;;;4978322;28;20213;-64
2022/10/01 08:24:11;;;;;;;4.03;3.40;;;14.60;96.20;;;;;;4973709;28;20189;-64
2022/10/01 08:26:37;;;;;;;3.63;3.30;;;14.60;96.10;;;;;;5017687;28;20204;-64
2022/10/01 08:29:03;;;;;;;3.47;3.13;;;14.70;95.90;;;;;;4974418;28;20184;-64
2022/10/01 08:31:29;;;;;;;3.23;2.93;;;14.70;95.70;;;;;;5008554;28;20202;-64
2022/10/01 08:33:55;;;;;;;3.20;2.90;;;14.70;95.90;;;;;;4973330;28;20193;-64
2022/10/01 08:36:21;;;;;;;3.27;2.50;;;14.70;95.90;;;;;;5000935;28;20240;-64
2022/10/01 08:38:47;;;;;;;3.07;2.77;;;14.70;95.30;;;;;;4978110;28;20200;-64
2022/10/01 08:41:33;;;;;;;2.87;2.67;;;14.70;95.10;;;;;;4988458;28;20195;-65
2022/10/01 08:44:01;;;;;;;3.00;2.80;;;14.80;95.10;;;;;;5005260;28;20256;-64
2022/10/01 08:46:33;;;;;;;2.77;2.57;;;14.80;95.10;;;;;;4984736;28;20192;-64
2022/10/01 08:49:05;;;;;;;2.77;2.57;;;14.90;95.10;;;;;;4982223;28;20193;-64
2022/10/01 08:51:38;;;;;;;2.93;2.67;;;14.90;94.70;;;;;;5005442;28;20180;-63
2022/10/01 08:54:26;;;;;;;2.83;2.63;;;15.00;95.00;;;;;;5028244;28;20196;-63
2022/10/01 08:56:55;;;;;;;2.57;2.37;;;15.00;95.10;;;;;;5019071;28;20212;-63
2022/10/01 08:59:48;;;;;;;3.60;2.73;;;15.10;95.20;;;;;;4990392;28;20201;-63
2022/10/01 09:02:40;;;;;;;2.70;2.50;;;14.90;93.70;;;;;;4984245;28;20246;-64
2022/10/01 09:05:26;;;;;;;3.07;2.87;;;14.80;92.50;;;;;;4981022;28;20181;-63
2022/10/01 09:08:43;;;;;;;4.77;3.07;;;14.80;93.40;;;;;;4994173;28;20181;-63
2022/10/01 09:11:45;;;;;;;3.30;3.03;;;14.80;93.70;;;;;;4985701;28;20196;-63
2022/10/01 09:14:19;;;;;;;3.00;2.80;;;14.90;94.10;;;;;;5012752;28;20240;-63
2022/10/01 09:17:02;;;;;;;3.27;2.50;;;15.00;94.10;;;;;;5006181;28;20200;-63
2022/10/01 09:19:35;;;;;;;3.03;2.80;;;15.00;94.50;;;;;;4988974;28;20198;-63
2022/10/01 09:22:30;;;;;;;2.63;2.40;;;15.10;94.90;;;;;;4989169;28;20181;-63
2022/10/01 09:25:07;;;;;;;3.50;2.70;;;15.20;94.60;;;;;;4979681;28;20299;-63
2022/10/01 09:27:35;;;;;;;3.30;3.00;;;15.20;93.30;;;;;;5011490;28;20191;-64
2022/10/01 09:30:05;;;;;;;2.90;2.70;;;15.30;93.50;;;;;;4980340;28;20200;-64
2022/10/01 09:32:48;;;;;;;3.00;2.80;;;15.40;93.90;;;;;;4987768;28;20188;-64
2022/10/01 09:35:20;;;;;;;2.93;2.73;;;15.60;94.00;;;;;;4975276;28;20253;-64
2022/10/01 09:38:21;;;;;;;3.17;2.53;;;15.60;92.00;;;;;;5010473;28;20219;-64
2022/10/01 09:40:55;;;;;;;3.20;2.40;;;15.70;92.40;;;;;;4976241;28;20200;-64
2022/10/01 09:43:24;;;;;;;2.70;2.50;;;15.80;93.00;;;;;;4990421;28;20188;-64
2022/10/01 09:45:51;;;;;;;2.83;2.37;;;15.90;90.90;;;;;;4991420;28;20185;-64
2022/10/01 09:48:20;;;;;;;2.13;1.93;;;15.90;90.00;;;;;;4991628;28;20185;-64
2022/10/01 09:50:54;;;;;;;2.57;2.37;;;16.00;89.30;;;;;;4977112;28;20279;-64
2022/10/01 09:53:42;;;;;;;2.90;2.50;;;16.10;90.20;;;;;;4983224;28;20194;-64
2022/10/01 09:56:15;;;;;;;2.90;2.47;;;16.00;91.00;;;;;;5005795;28;20188;-64
2022/10/01 09:58:46;;;;;;;3.40;2.70;;;15.80;89.40;;;;;;4985574;28;20204;-64
2022/10/01 10:01:20;;;;;;;2.73;2.53;;;15.90;90.80;;;;;;4978482;28;20185;-64
2022/10/01 10:03:54;;;;;;;3.00;2.70;;;15.90;88.80;;;;;;4971606;28;20200;-64
2022/10/01 10:06:27;;;;;;;2.60;2.40;;;16.10;90.60;;;;;;4985444;28;20192;-63
2022/10/01 10:08:55;;;;;;;2.60;2.40;;;16.20;90.00;;;;;;4978691;28;20225;-63
2022/10/01 10:11:23;;;;;;;2.67;2.47;;;16.20;91.90;;;;;;4986515;28;20252;-63
2022/10/01 10:13:51;;;;;;;3.00;2.23;;;16.30;89.00;;;;;;4972461;28;20185;-63
2022/10/01 10:16:28;;;;;;;3.07;2.73;;;16.40;88.90;;;;;;5021522;28;20189;-64
2022/10/01 10:19:01;;;;;;;2.87;2.67;;;16.30;87.70;;;;;;4977640;28;20239;-63
2022/10/01 10:21:29;;;;;;;2.37;2.17;;;16.20;88.70;;;;;;5016137;28;20212;-63
2022/10/01 10:23:58;;;;;;;2.70;2.50;;;16.20;90.20;;;;;;4972859;28;20197;-63
2022/10/01 10:26:37;;;;;;;3.17;2.30;;;16.20;91.00;;;;;;4974967;28;20200;-63
2022/10/01 10:29:04;;;;;;;3.27;2.50;;;16.20;90.10;;;;;;4980290;28;20207;-64
2022/10/01 10:31:44;;;;;;;2.50;2.20;;;16.30;91.50;;;;;;4987079;28;20189;-63
2022/10/01 10:34:30;;;;;;;2.47;2.27;;;16.20;89.70;;;;;;4997479;28;20197;-63
2022/10/01 10:36:58;;;;;;;2.17;1.97;;;16.10;90.60;;;;;;4988424;28;20276;-64
2022/10/01 10:39:30;;;;;;;2.30;2.20;;;16.00;89.80;;;;;;4977716;28;20189;-63
2022/10/01 10:41:57;;;;;;;2.80;2.43;;;16.00;90.70;;;;;;4989184;28;20189;-63
2022/10/01 10:44:26;;;;;;;2.67;2.40;;;16.00;91.40;;;;;;4993944;28;20189;-63
2022/10/01 10:46:58;;;;;;;3.03;2.10;;;15.90;91.80;;;;;;4982349;28;20197;-63
2022/10/01 10:49:30;;;;;;;2.97;2.67;;;15.90;92.50;;;;;;4978137;28;20276;-64
2022/10/01 10:51:59;;;;;;;2.83;2.63;;;15.90;92.90;;;;;;5019741;28;20271;-63
2022/10/01 10:54:39;;;;;;;3.13;2.70;;;15.90;92.60;;;;;;4981601;28;20193;-63
2022/10/01 10:57:40;;;;;;;2.83;2.63;;;15.90;92.70;;;;;;4987620;28;20204;-63
2022/10/01 11:00:12;;;;;;;2.70;2.50;;;15.90;93.20;;;;;;4993179;28;20197;-63
2022/10/01 11:02:41;;;;;;;3.53;3.20;;;15.80;90.80;;;;;;4996014;28;20178;-63
2022/10/01 11:05:19;;;;;;;3.87;2.90;;;15.90;92.20;;;;;;4993349;28;20188;-63
2022/10/01 11:07:47;;;;;;;3.47;2.73;;;15.90;91.80;;;;;;4994367;28;20191;-63
2022/10/01 11:10:16;;;;;;;5.13;3.13;;;16.00;92.20;;;;;;4989828;28;20233;-63
2022/10/01 11:13:17;;;;;;;3.30;2.90;;;16.10;92.00;;;;;;5020128;28;20200;-63
2022/10/01 11:15:49;;;;;;;3.13;2.90;;;16.10;92.50;;;;;;4988373;28;20223;-64
2022/10/01 11:18:41;;;;;;;3.33;2.53;;;16.20;92.50;;;;;;4993048;28;20259;-63
2022/10/01 11:21:28;;;;;;;2.83;2.63;;;16.30;88.00;;;;;;4979670;28;20243;-63
2022/10/01 11:24:05;;;;;;;4.27;2.77;;;16.40;90.40;;;;;;4981183;28;20185;-64
2022/10/01 11:26:51;;;;;;;3.03;2.83;;;16.50;90.10;;;;;;5026946;28;20188;-63
2022/10/01 11:29:39;;;;;;;3.70;3.27;;;16.50;88.90;;;;;;4988845;28;20190;-64
2022/10/01 11:32:35;;;;;;;6.27;3.23;;;16.70;89.30;;;;;;5021875;28;20189;-63
2022/10/01 11:35:10;;;;;;;2.70;2.50;;;16.80;90.60;;;;;;4983843;28;20237;-63
2022/10/01 11:38:05;;;;;;;3.40;3.10;;;16.90;86.10;;;;;;4980322;28;20200;-63
2022/10/01 11:40:49;;;;;;;3.30;2.93;;;17.00;87.70;;;;;;4988768;28;20185;-64
2022/10/01 11:43:33;;;;;;;4.07;3.17;;;17.00;87.00;;;;;;4988843;28;20220;-64
2022/10/01 11:46:37;;;;;;;4.07;3.67;;;17.00;88.10;;;;;;4976566;28;20213;-63
2022/10/01 11:49:05;;;;;;;3.67;3.30;;;16.80;86.60;;;;;;4991648;28;20201;-63
2022/10/01 11:51:40;;;;;;;3.40;3.10;;;16.80;88.70;;;;;;5020637;28;20200;-63
2022/10/01 11:54:12;;;;;;;2.77;2.57;;;16.80;88.80;;;;;;4986738;28;20223;-63
2022/10/01 11:59:40;;;;;;;3.27;2.90;;;16.80;88.50;;;;;;4983297;28;20252;-63
2022/10/01 12:02:39;;;;;;;3.30;3.00;;;16.80;89.00;;;;;;4983268;28;20189;-64
2022/10/01 12:05:06;;;;;;;2.57;2.37;;;16.90;88.10;;;;;;4989082;28;20291;-63
2022/10/01 12:07:44;;;;;;;2.97;2.77;;;17.00;89.40;;;;;;4991130;28;20200;-63
2022/10/01 12:10:45;;;;;;;3.10;2.17;;;17.20;90.50;;;;;;5006852;28;20189;-63
2022/10/01 12:13:31;;;;;;;3.13;2.83;;;17.30;88.70;;;;;;4987471;28;20184;-63
2022/10/01 12:16:14;;;;;;;3.10;2.83;;;17.30;89.10;;;;;;4983039;28;20185;-63
2022/10/01 12:18:51;;;;;;;3.97;2.53;;;17.40;90.10;;;;;;4984407;28;20198;-63
2022/10/01 12:21:25;;;;;;;2.57;2.37;;;17.40;88.20;;;;;;4980033;28;20189;-63
2022/10/01 12:24:05;;;;;;;2.90;2.70;;;17.40;89.30;;;;;;4992552;28;20270;-63
2022/10/01 12:26:45;;;;;;;2.97;2.77;;;17.30;84.80;;;;;;5008009;28;20212;-63
2022/10/01 12:29:23;;;;;;;2.80;2.60;;;17.30;86.90;;;;;;4983759;28;20219;-63
2022/10/01 12:31:57;;;;;;;4.27;3.10;;;17.40;88.70;;;;;;5020681;28;20212;-63
2022/10/01 12:34:26;;;;;;;3.40;2.63;;;17.70;87.50;;;;;;4987870;28;20212;-63
2022/10/01 12:37:09;;;;;;;2.90;2.60;;;17.80;88.20;;;;;;4989659;28;20213;-63
2022/10/01 12:40:12;;;;;;;3.50;2.70;;;17.90;87.60;;;;;;5017880;28;20180;-63
2022/10/01 12:42:56;;;;;;;2.60;2.40;;;17.90;85.40;;;;;;5005712;28;20229;-63
2022/10/01 12:45:48;;;;;;;5.10;2.43;;;17.90;86.20;;;;;;5017696;28;20349;-63
2022/10/01 12:48:36;;;;;;;2.33;2.13;;;17.90;87.70;;;;;;5020645;28;20180;-63
2022/10/01 12:51:20;;;;;;;2.60;2.17;;;17.80;87.60;;;;;;5020119;28;20224;-63
2022/10/01 12:53:55;;;;;;;2.80;2.50;;;17.80;88.80;;;;;;5005413;28;20196;-63
2022/10/01 12:56:36;;;;;;;2.77;2.47;;;17.80;86.80;;;;;;4974304;28;20253;-63
2022/10/01 12:59:07;;;;;;;3.20;2.73;;;17.80;88.00;;;;;;4974011;28;20184;-63
2022/10/01 13:01:45;;;;;;;4.47;2.30;;;17.80;88.50;;;;;;5018691;28;20227;-63
2022/10/01 13:04:50;;;;;;;4.47;2.50;;;17.80;88.70;;;;;;5008794;28;20188;-63
2022/10/01 13:07:15;;;;;;;2.60;2.40;;;17.80;88.40;;;;;;4982557;28;20201;-63
2022/10/01 13:09:54;;;;;;;2.57;2.37;;;17.90;89.40;;;;;;5016874;28;20414;-63
2022/10/01 13:12:38;;;;;;;2.67;2.47;;;17.90;88.70;;;;;;5017614;28;20212;-63